Powhatan, Louisiana
Current Conditions -  °F | °C
As of 7:35 PM on Thursday 27 Nov 2014 (Local Time) from KIER Reporting Station
Clear Clear  
Wind Chill: 41°   Ceiling: Unl
Heat Index: 41°   Visibility: 10mi
Dew Point: 38°   Wind: 0mph
Humidity: 88%   Direction: NA
Pressure: 30.46"   Gusts: NA
Location:  31.87°N, 93.2°W
Report Text: KIER 280135Z AUTO 00000KT 10SM CLR 05/03 A3046 RMK AO2 T00510032
Loading
Personal Weather Stations






























Interactive Weather Map New forecast layout! Learn more

10-Day Weather Forecast

Advertisements
Track Severe Weather on mobile